sensor_id;sensor_type;location;lat;lon;timestamp;P1;durP1;ratioP1;P2;durP2;ratioP2
46090;SDS011;31826;53.572;10.170;2023-07-13T00:01:42;3.83;;;1.65;;
46090;SDS011;31826;53.572;10.170;2023-07-13T00:04:08;4.50;;;1.70;;
46090;SDS011;31826;53.572;10.170;2023-07-13T00:06:34;5.00;;;1.70;;
46090;SDS011;31826;53.572;10.170;2023-07-13T00:09:00;5.63;;;1.97;;
46090;SDS011;31826;53.572;10.170;2023-07-13T00:11:26;3.70;;;1.70;;
46090;SDS011;31826;53.572;10.170;2023-07-13T00:13:52;2.83;;;1.67;;
46090;SDS011;31826;53.572;10.170;2023-07-13T00:16:18;5.53;;;1.90;;
46090;SDS011;31826;53.572;10.170;2023-07-13T00:18:44;6.03;;;2.00;;
46090;SDS011;31826;53.572;10.170;2023-07-13T00:21:11;6.90;;;2.70;;
46090;SDS011;31826;53.572;10.170;2023-07-13T00:23:37;4.45;;;1.90;;
46090;SDS011;31826;53.572;10.170;2023-07-13T00:26:06;10.63;;;2.38;;
46090;SDS011;31826;53.572;10.170;2023-07-13T00:28:33;6.35;;;2.17;;
46090;SDS011;31826;53.572;10.170;2023-07-13T00:30:59;5.10;;;2.03;;
46090;SDS011;31826;53.572;10.170;2023-07-13T00:33:26;4.73;;;2.07;;
46090;SDS011;31826;53.572;10.170;2023-07-13T00:35:53;4.15;;;1.92;;
46090;SDS011;31826;53.572;10.170;2023-07-13T00:38:20;5.78;;;1.83;;
46090;SDS011;31826;53.572;10.170;2023-07-13T00:40:46;4.40;;;1.77;;
46090;SDS011;31826;53.572;10.170;2023-07-13T00:43:20;4.85;;;1.98;;
46090;SDS011;31826;53.572;10.170;2023-07-13T00:48:13;4.57;;;2.40;;
46090;SDS011;31826;53.572;10.170;2023-07-13T00:50:43;7.55;;;2.10;;
46090;SDS011;31826;53.572;10.170;2023-07-13T00:53:10;5.38;;;2.08;;
46090;SDS011;31826;53.572;10.170;2023-07-13T00:55:36;4.60;;;2.27;;
46090;SDS011;31826;53.572;10.170;2023-07-13T00:58:03;7.00;;;2.00;;
46090;SDS011;31826;53.572;10.170;2023-07-13T01:00:31;6.33;;;2.30;;
46090;SDS011;31826;53.572;10.170;2023-07-13T01:03:03;5.43;;;1.80;;
46090;SDS011;31826;53.572;10.170;2023-07-13T01:05:29;4.77;;;1.93;;
46090;SDS011;31826;53.572;10.170;2023-07-13T01:07:57;7.95;;;2.72;;
46090;SDS011;31826;53.572;10.170;2023-07-13T01:10:24;6.95;;;1.88;;
46090;SDS011;31826;53.572;10.170;2023-07-13T01:12:51;4.25;;;2.00;;
46090;SDS011;31826;53.572;10.170;2023-07-13T01:15:36;5.75;;;2.00;;
46090;SDS011;31826;53.572;10.170;2023-07-13T01:18:02;3.28;;;2.20;;
46090;SDS011;31826;53.572;10.170;2023-07-13T01:20:30;4.47;;;1.85;;
46090;SDS011;31826;53.572;10.170;2023-07-13T01:23:10;5.00;;;2.17;;
46090;SDS011;31826;53.572;10.170;2023-07-13T01:25:38;5.35;;;2.10;;
46090;SDS011;31826;53.572;10.170;2023-07-13T01:28:04;3.83;;;2.08;;
46090;SDS011;31826;53.572;10.170;2023-07-13T01:30:31;4.05;;;2.10;;
46090;SDS011;31826;53.572;10.170;2023-07-13T01:32:57;4.97;;;2.40;;
46090;SDS011;31826;53.572;10.170;2023-07-13T01:35:23;6.00;;;2.08;;
46090;SDS011;31826;53.572;10.170;2023-07-13T01:37:52;7.47;;;1.90;;
46090;SDS011;31826;53.572;10.170;2023-07-13T01:40:18;5.50;;;2.05;;
46090;SDS011;31826;53.572;10.170;2023-07-13T01:42:44;5.55;;;2.05;;
46090;SDS011;31826;53.572;10.170;2023-07-13T01:45:10;5.70;;;2.10;;
46090;SDS011;31826;53.572;10.170;2023-07-13T01:47:36;4.43;;;2.13;;
46090;SDS011;31826;53.572;10.170;2023-07-13T01:50:01;3.95;;;1.95;;
46090;SDS011;31826;53.572;10.170;2023-07-13T01:52:27;5.65;;;1.95;;
46090;SDS011;31826;53.572;10.170;2023-07-13T01:54:53;4.38;;;1.90;;
46090;SDS011;31826;53.572;10.170;2023-07-13T01:57:19;5.40;;;2.20;;
46090;SDS011;31826;53.572;10.170;2023-07-13T01:59:44;6.60;;;2.33;;
46090;SDS011;31826;53.572;10.170;2023-07-13T02:02:10;6.47;;;2.33;;
46090;SDS011;31826;53.572;10.170;2023-07-13T02:04:35;5.13;;;2.33;;
46090;SDS011;31826;53.572;10.170;2023-07-13T02:07:01;4.45;;;2.00;;
46090;SDS011;31826;53.572;10.170;2023-07-13T02:09:27;6.45;;;2.50;;
46090;SDS011;31826;53.572;10.170;2023-07-13T02:11:53;5.27;;;2.57;;
46090;SDS011;31826;53.572;10.170;2023-07-13T02:14:18;6.07;;;2.23;;
46090;SDS011;31826;53.572;10.170;2023-07-13T02:16:44;5.55;;;2.75;;
46090;SDS011;31826;53.572;10.170;2023-07-13T02:19:10;7.55;;;2.70;;
46090;SDS011;31826;53.572;10.170;2023-07-13T02:21:35;5.23;;;2.50;;
46090;SDS011;31826;53.572;10.170;2023-07-13T02:24:01;5.67;;;2.70;;
46090;SDS011;31826;53.572;10.170;2023-07-13T02:26:27;6.25;;;2.80;;
46090;SDS011;31826;53.572;10.170;2023-07-13T02:28:53;5.07;;;2.72;;
46090;SDS011;31826;53.572;10.170;2023-07-13T02:31:18;10.73;;;3.00;;
46090;SDS011;31826;53.572;10.170;2023-07-13T02:33:45;8.03;;;3.07;;
46090;SDS011;31826;53.572;10.170;2023-07-13T02:36:11;7.17;;;2.77;;
46090;SDS011;31826;53.572;10.170;2023-07-13T02:38:39;9.30;;;3.00;;
46090;SDS011;31826;53.572;10.170;2023-07-13T02:41:05;6.80;;;2.87;;
46090;SDS011;31826;53.572;10.170;2023-07-13T02:43:33;5.88;;;3.10;;
46090;SDS011;31826;53.572;10.170;2023-07-13T02:45:59;9.35;;;3.60;;
46090;SDS011;31826;53.572;10.170;2023-07-13T02:48:35;6.38;;;3.20;;
46090;SDS011;31826;53.572;10.170;2023-07-13T02:51:02;7.13;;;2.93;;
46090;SDS011;31826;53.572;10.170;2023-07-13T02:53:27;8.33;;;3.40;;
46090;SDS011;31826;53.572;10.170;2023-07-13T02:55:53;7.17;;;3.23;;
46090;SDS011;31826;53.572;10.170;2023-07-13T02:58:19;6.75;;;3.08;;
46090;SDS011;31826;53.572;10.170;2023-07-13T03:00:47;6.97;;;3.25;;
46090;SDS011;31826;53.572;10.170;2023-07-13T03:03:13;7.03;;;3.40;;
46090;SDS011;31826;53.572;10.170;2023-07-13T03:05:40;9.25;;;3.53;;
46090;SDS011;31826;53.572;10.170;2023-07-13T03:08:08;8.52;;;3.03;;
46090;SDS011;31826;53.572;10.170;2023-07-13T03:10:34;9.00;;;3.33;;
46090;SDS011;31826;53.572;10.170;2023-07-13T03:13:00;7.63;;;3.13;;
46090;SDS011;31826;53.572;10.170;2023-07-13T03:15:26;6.38;;;3.15;;
46090;SDS011;31826;53.572;10.170;2023-07-13T03:17:52;8.20;;;3.50;;
46090;SDS011;31826;53.572;10.170;2023-07-13T03:20:18;9.13;;;3.30;;
46090;SDS011;31826;53.572;10.170;2023-07-13T03:22:45;6.57;;;3.10;;
46090;SDS011;31826;53.572;10.170;2023-07-13T03:25:11;8.18;;;3.15;;
46090;SDS011;31826;53.572;10.170;2023-07-13T03:27:37;7.88;;;3.30;;
46090;SDS011;31826;53.572;10.170;2023-07-13T03:30:03;10.53;;;3.90;;
46090;SDS011;31826;53.572;10.170;2023-07-13T03:32:30;8.68;;;3.30;;
46090;SDS011;31826;53.572;10.170;2023-07-13T03:34:56;9.50;;;3.27;;
46090;SDS011;31826;53.572;10.170;2023-07-13T03:37:22;7.78;;;3.65;;
46090;SDS011;31826;53.572;10.170;2023-07-13T03:39:48;10.48;;;3.85;;
46090;SDS011;31826;53.572;10.170;2023-07-13T03:42:13;7.95;;;3.50;;
46090;SDS011;31826;53.572;10.170;2023-07-13T03:44:39;9.13;;;3.47;;
46090;SDS011;31826;53.572;10.170;2023-07-13T03:47:11;10.40;;;4.10;;
46090;SDS011;31826;53.572;10.170;2023-07-13T03:49:37;9.45;;;3.40;;
46090;SDS011;31826;53.572;10.170;2023-07-13T03:52:02;7.00;;;3.60;;
46090;SDS011;31826;53.572;10.170;2023-07-13T03:54:28;9.18;;;3.50;;
46090;SDS011;31826;53.572;10.170;2023-07-13T03:56:54;9.35;;;3.90;;
46090;SDS011;31826;53.572;10.170;2023-07-13T03:59:20;7.13;;;3.63;;
46090;SDS011;31826;53.572;10.170;2023-07-13T04:01:46;11.15;;;4.03;;
46090;SDS011;31826;53.572;10.170;2023-07-13T04:04:11;11.18;;;3.60;;
46090;SDS011;31826;53.572;10.170;2023-07-13T04:06:37;10.77;;;4.10;;
46090;SDS011;31826;53.572;10.170;2023-07-13T04:09:03;9.43;;;4.38;;
46090;SDS011;31826;53.572;10.170;2023-07-13T04:11:33;6.95;;;3.40;;
46090;SDS011;31826;53.572;10.170;2023-07-13T04:14:01;9.32;;;3.38;;
46090;SDS011;31826;53.572;10.170;2023-07-13T04:16:27;11.73;;;3.90;;
46090;SDS011;31826;53.572;10.170;2023-07-13T04:18:53;9.02;;;3.20;;
46090;SDS011;31826;53.572;10.170;2023-07-13T04:21:22;8.37;;;3.30;;
46090;SDS011;31826;53.572;10.170;2023-07-13T04:23:48;10.23;;;3.40;;
46090;SDS011;31826;53.572;10.170;2023-07-13T04:26:14;7.43;;;3.17;;
46090;SDS011;31826;53.572;10.170;2023-07-13T04:28:39;6.90;;;3.13;;
46090;SDS011;31826;53.572;10.170;2023-07-13T04:31:05;8.70;;;3.40;;
46090;SDS011;31826;53.572;10.170;2023-07-13T04:33:30;9.40;;;3.45;;
46090;SDS011;31826;53.572;10.170;2023-07-13T04:35:57;10.23;;;3.47;;
46090;SDS011;31826;53.572;10.170;2023-07-13T04:38:25;7.38;;;3.50;;
46090;SDS011;31826;53.572;10.170;2023-07-13T04:40:53;7.25;;;3.30;;
46090;SDS011;31826;53.572;10.170;2023-07-13T04:43:23;6.93;;;3.15;;
46090;SDS011;31826;53.572;10.170;2023-07-13T04:45:50;5.50;;;3.17;;
46090;SDS011;31826;53.572;10.170;2023-07-13T04:48:16;9.83;;;3.37;;
46090;SDS011;31826;53.572;10.170;2023-07-13T04:50:42;9.07;;;3.20;;
46090;SDS011;31826;53.572;10.170;2023-07-13T04:53:08;7.93;;;3.30;;
46090;SDS011;31826;53.572;10.170;2023-07-13T04:55:35;8.23;;;3.90;;
46090;SDS011;31826;53.572;10.170;2023-07-13T04:58:02;5.82;;;2.90;;
46090;SDS011;31826;53.572;10.170;2023-07-13T05:00:27;9.15;;;3.25;;
46090;SDS011;31826;53.572;10.170;2023-07-13T05:02:57;6.75;;;3.15;;
46090;SDS011;31826;53.572;10.170;2023-07-13T05:05:23;9.20;;;3.35;;
46090;SDS011;31826;53.572;10.170;2023-07-13T05:07:50;8.00;;;3.00;;
46090;SDS011;31826;53.572;10.170;2023-07-13T05:10:16;9.25;;;3.28;;
46090;SDS011;31826;53.572;10.170;2023-07-13T05:12:42;8.82;;;3.10;;
46090;SDS011;31826;53.572;10.170;2023-07-13T05:15:09;7.85;;;3.08;;
46090;SDS011;31826;53.572;10.170;2023-07-13T05:17:35;6.95;;;3.00;;
46090;SDS011;31826;53.572;10.170;2023-07-13T05:20:00;5.27;;;2.87;;
46090;SDS011;31826;53.572;10.170;2023-07-13T05:22:27;7.95;;;3.40;;
46090;SDS011;31826;53.572;10.170;2023-07-13T05:24:53;8.33;;;3.50;;
46090;SDS011;31826;53.572;10.170;2023-07-13T05:27:19;6.22;;;3.17;;
46090;SDS011;31826;53.572;10.170;2023-07-13T05:29:44;8.52;;;3.03;;
46090;SDS011;31826;53.572;10.170;2023-07-13T05:32:10;6.20;;;3.20;;
46090;SDS011;31826;53.572;10.170;2023-07-13T05:34:36;7.17;;;2.90;;
46090;SDS011;31826;53.572;10.170;2023-07-13T05:37:01;7.37;;;3.00;;
46090;SDS011;31826;53.572;10.170;2023-07-13T05:39:27;8.90;;;3.00;;
46090;SDS011;31826;53.572;10.170;2023-07-13T05:41:53;7.30;;;2.70;;
46090;SDS011;31826;53.572;10.170;2023-07-13T05:44:18;8.27;;;2.93;;
46090;SDS011;31826;53.572;10.170;2023-07-13T05:46:44;8.83;;;3.00;;
46090;SDS011;31826;53.572;10.170;2023-07-13T05:49:10;8.73;;;4.10;;
46090;SDS011;31826;53.572;10.170;2023-07-13T05:51:36;9.57;;;3.40;;
46090;SDS011;31826;53.572;10.170;2023-07-13T05:54:02;7.18;;;2.60;;
46090;SDS011;31826;53.572;10.170;2023-07-13T05:56:28;8.23;;;2.73;;
46090;SDS011;31826;53.572;10.170;2023-07-13T05:58:54;11.80;;;2.67;;
46090;SDS011;31826;53.572;10.170;2023-07-13T06:01:19;10.90;;;3.10;;
46090;SDS011;31826;53.572;10.170;2023-07-13T06:03:46;9.85;;;2.72;;
46090;SDS011;31826;53.572;10.170;2023-07-13T06:06:12;6.40;;;2.45;;
46090;SDS011;31826;53.572;10.170;2023-07-13T06:08:38;9.88;;;2.75;;
46090;SDS011;31826;53.572;10.170;2023-07-13T06:13:35;7.97;;;2.80;;
46090;SDS011;31826;53.572;10.170;2023-07-13T06:16:01;8.50;;;2.70;;
46090;SDS011;31826;53.572;10.170;2023-07-13T06:18:29;13.63;;;2.75;;
46090;SDS011;31826;53.572;10.170;2023-07-13T06:20:56;8.05;;;2.47;;
46090;SDS011;31826;53.572;10.170;2023-07-13T06:23:22;8.65;;;2.70;;
46090;SDS011;31826;53.572;10.170;2023-07-13T06:25:48;13.32;;;2.90;;
46090;SDS011;31826;53.572;10.170;2023-07-13T06:28:14;9.03;;;2.60;;
46090;SDS011;31826;53.572;10.170;2023-07-13T06:30:39;9.85;;;3.20;;
46090;SDS011;31826;53.572;10.170;2023-07-13T06:33:05;10.13;;;2.47;;
46090;SDS011;31826;53.572;10.170;2023-07-13T06:35:31;9.27;;;2.42;;
46090;SDS011;31826;53.572;10.170;2023-07-13T06:37:57;8.32;;;2.70;;
46090;SDS011;31826;53.572;10.170;2023-07-13T06:40:22;8.90;;;2.70;;
46090;SDS011;31826;53.572;10.170;2023-07-13T06:42:48;8.47;;;2.50;;
46090;SDS011;31826;53.572;10.170;2023-07-13T06:45:14;11.00;;;2.20;;
46090;SDS011;31826;53.572;10.170;2023-07-13T06:47:39;11.00;;;2.40;;
46090;SDS011;31826;53.572;10.170;2023-07-13T06:50:06;12.52;;;3.03;;
46090;SDS011;31826;53.572;10.170;2023-07-13T06:52:32;9.50;;;3.00;;
46090;SDS011;31826;53.572;10.170;2023-07-13T06:54:58;8.35;;;2.60;;
46090;SDS011;31826;53.572;10.170;2023-07-13T06:57:24;9.15;;;2.40;;
46090;SDS011;31826;53.572;10.170;2023-07-13T06:59:49;9.33;;;2.60;;
46090;SDS011;31826;53.572;10.170;2023-07-13T07:02:15;8.47;;;2.83;;
46090;SDS011;31826;53.572;10.170;2023-07-13T07:04:41;14.93;;;2.90;;
46090;SDS011;31826;53.572;10.170;2023-07-13T07:07:06;6.47;;;2.38;;
46090;SDS011;31826;53.572;10.170;2023-07-13T07:09:32;12.97;;;3.03;;
46090;SDS011;31826;53.572;10.170;2023-07-13T07:11:58;9.95;;;2.72;;
46090;SDS011;31826;53.572;10.170;2023-07-13T07:14:23;7.72;;;2.40;;
46090;SDS011;31826;53.572;10.170;2023-07-13T07:16:49;12.52;;;2.30;;
46090;SDS011;31826;53.572;10.170;2023-07-13T07:19:15;8.77;;;2.30;;
46090;SDS011;31826;53.572;10.170;2023-07-13T07:21:41;10.20;;;2.90;;
46090;SDS011;31826;53.572;10.170;2023-07-13T07:24:07;8.23;;;2.87;;
46090;SDS011;31826;53.572;10.170;2023-07-13T07:26:32;8.77;;;2.57;;
46090;SDS011;31826;53.572;10.170;2023-07-13T07:28:58;6.17;;;2.03;;
46090;SDS011;31826;53.572;10.170;2023-07-13T07:31:24;10.07;;;2.63;;
46090;SDS011;31826;53.572;10.170;2023-07-13T07:33:50;11.00;;;2.47;;
46090;SDS011;31826;53.572;10.170;2023-07-13T07:36:16;5.38;;;2.20;;
46090;SDS011;31826;53.572;10.170;2023-07-13T07:38:42;9.52;;;2.78;;
46090;SDS011;31826;53.572;10.170;2023-07-13T07:41:08;9.52;;;2.13;;
46090;SDS011;31826;53.572;10.170;2023-07-13T07:43:34;8.38;;;2.42;;
46090;SDS011;31826;53.572;10.170;2023-07-13T07:46:00;7.27;;;2.10;;
46090;SDS011;31826;53.572;10.170;2023-07-13T07:48:26;11.50;;;2.20;;
46090;SDS011;31826;53.572;10.170;2023-07-13T07:50:52;10.53;;;2.50;;
46090;SDS011;31826;53.572;10.170;2023-07-13T07:53:18;8.80;;;2.30;;
46090;SDS011;31826;53.572;10.170;2023-07-13T07:55:44;7.63;;;2.47;;
46090;SDS011;31826;53.572;10.170;2023-07-13T07:58:10;8.43;;;2.10;;
46090;SDS011;31826;53.572;10.170;2023-07-13T08:00:36;8.77;;;2.30;;
46090;SDS011;31826;53.572;10.170;2023-07-13T08:03:01;8.17;;;2.57;;
46090;SDS011;31826;53.572;10.170;2023-07-13T08:05:28;11.05;;;2.55;;
46090;SDS011;31826;53.572;10.170;2023-07-13T08:07:53;8.63;;;2.38;;
46090;SDS011;31826;53.572;10.170;2023-07-13T08:10:19;8.67;;;2.67;;
46090;SDS011;31826;53.572;10.170;2023-07-13T08:12:45;6.97;;;2.38;;
46090;SDS011;31826;53.572;10.170;2023-07-13T08:15:12;6.57;;;2.33;;
46090;SDS011;31826;53.572;10.170;2023-07-13T08:17:40;7.33;;;2.30;;
46090;SDS011;31826;53.572;10.170;2023-07-13T08:20:06;8.77;;;2.37;;
46090;SDS011;31826;53.572;10.170;2023-07-13T08:22:33;5.60;;;2.30;;
46090;SDS011;31826;53.572;10.170;2023-07-13T08:25:00;8.60;;;2.70;;
46090;SDS011;31826;53.572;10.170;2023-07-13T08:27:27;8.85;;;2.47;;
46090;SDS011;31826;53.572;10.170;2023-07-13T08:29:53;7.82;;;2.13;;
46090;SDS011;31826;53.572;10.170;2023-07-13T08:32:20;10.93;;;2.47;;
46090;SDS011;31826;53.572;10.170;2023-07-13T08:34:47;7.75;;;2.22;;
46090;SDS011;31826;53.572;10.170;2023-07-13T08:37:13;8.60;;;2.30;;
46090;SDS011;31826;53.572;10.170;2023-07-13T08:39:39;7.80;;;2.10;;
46090;SDS011;31826;53.572;10.170;2023-07-13T08:42:06;21.33;;;5.47;;
46090;SDS011;31826;53.572;10.170;2023-07-13T08:47:31;7.25;;;1.90;;
46090;SDS011;31826;53.572;10.170;2023-07-13T08:50:02;7.82;;;2.00;;
46090;SDS011;31826;53.572;10.170;2023-07-13T08:52:36;6.40;;;2.05;;
46090;SDS011;31826;53.572;10.170;2023-07-13T08:55:14;7.50;;;1.90;;
46090;SDS011;31826;53.572;10.170;2023-07-13T08:57:46;6.82;;;2.00;;
46090;SDS011;31826;53.572;10.170;2023-07-13T09:00:18;4.38;;;1.60;;
46090;SDS011;31826;53.572;10.170;2023-07-13T09:05:28;7.57;;;2.03;;
46090;SDS011;31826;53.572;10.170;2023-07-13T09:10:31;6.18;;;2.20;;
46090;SDS011;31826;53.572;10.170;2023-07-13T09:13:21;10.48;;;2.60;;
46090;SDS011;31826;53.572;10.170;2023-07-13T09:15:53;7.80;;;2.15;;
46090;SDS011;31826;53.572;10.170;2023-07-13T09:20:55;5.13;;;2.00;;
46090;SDS011;31826;53.572;10.170;2023-07-13T09:23:26;6.78;;;2.03;;
46090;SDS011;31826;53.572;10.170;2023-07-13T09:25:58;3.95;;;1.90;;
46090;SDS011;31826;53.572;10.170;2023-07-13T09:28:45;3.70;;;1.80;;
46090;SDS011;31826;53.572;10.170;2023-07-13T09:31:18;8.75;;;2.20;;
46090;SDS011;31826;53.572;10.170;2023-07-13T09:33:49;5.40;;;2.25;;
46090;SDS011;31826;53.572;10.170;2023-07-13T09:38:43;7.07;;;1.80;;
46090;SDS011;31826;53.572;10.170;2023-07-13T09:46:39;3.72;;;1.60;;
46090;SDS011;31826;53.572;10.170;2023-07-13T09:49:11;7.35;;;1.92;;
46090;SDS011;31826;53.572;10.170;2023-07-13T09:51:37;4.20;;;1.67;;
46090;SDS011;31826;53.572;10.170;2023-07-13T09:54:18;6.43;;;1.92;;
46090;SDS011;31826;53.572;10.170;2023-07-13T09:56:45;10.15;;;2.00;;
46090;SDS011;31826;53.572;10.170;2023-07-13T09:59:20;5.72;;;1.92;;
46090;SDS011;31826;53.572;10.170;2023-07-13T10:01:49;6.07;;;1.48;;
46090;SDS011;31826;53.572;10.170;2023-07-13T10:04:18;5.70;;;1.73;;
46090;SDS011;31826;53.572;10.170;2023-07-13T10:06:45;6.80;;;1.60;;
46090;SDS011;31826;53.572;10.170;2023-07-13T10:09:15;5.53;;;1.77;;
46090;SDS011;31826;53.572;10.170;2023-07-13T10:11:42;7.00;;;1.75;;
46090;SDS011;31826;53.572;10.170;2023-07-13T10:16:39;6.28;;;1.95;;
46090;SDS011;31826;53.572;10.170;2023-07-13T10:21:53;4.97;;;1.50;;
46090;SDS011;31826;53.572;10.170;2023-07-13T10:24:22;6.00;;;1.63;;
46090;SDS011;31826;53.572;10.170;2023-07-13T10:26:54;10.90;;;1.90;;
46090;SDS011;31826;53.572;10.170;2023-07-13T10:30:27;8.55;;;1.75;;
46090;SDS011;31826;53.572;10.170;2023-07-13T10:32:30;6.13;;;1.60;;
46090;SDS011;31826;53.572;10.170;2023-07-13T10:34:56;4.15;;;1.52;;
46090;SDS011;31826;53.572;10.170;2023-07-13T10:37:26;3.65;;;1.58;;
46090;SDS011;31826;53.572;10.170;2023-07-13T10:39:56;6.97;;;1.70;;
46090;SDS011;31826;53.572;10.170;2023-07-13T10:42:44;4.43;;;1.73;;
46090;SDS011;31826;53.572;10.170;2023-07-13T10:45:16;5.97;;;1.92;;
46090;SDS011;31826;53.572;10.170;2023-07-13T10:47:45;6.38;;;1.70;;
46090;SDS011;31826;53.572;10.170;2023-07-13T10:50:15;5.53;;;1.80;;
46090;SDS011;31826;53.572;10.170;2023-07-13T10:52:48;2.83;;;1.30;;
46090;SDS011;31826;53.572;10.170;2023-07-13T10:58:23;8.50;;;1.65;;
46090;SDS011;31826;53.572;10.170;2023-07-13T11:01:12;6.47;;;1.60;;
46090;SDS011;31826;53.572;10.170;2023-07-13T11:03:54;4.82;;;1.60;;
46090;SDS011;31826;53.572;10.170;2023-07-13T11:08:57;4.90;;;1.60;;
46090;SDS011;31826;53.572;10.170;2023-07-13T11:18:52;3.53;;;1.52;;
46090;SDS011;31826;53.572;10.170;2023-07-13T11:21:32;3.97;;;1.75;;
46090;SDS011;31826;53.572;10.170;2023-07-13T11:24:14;4.13;;;1.50;;
46090;SDS011;31826;53.572;10.170;2023-07-13T11:26:42;4.15;;;1.40;;
46090;SDS011;31826;53.572;10.170;2023-07-13T11:31:43;4.13;;;1.35;;
46090;SDS011;31826;53.572;10.170;2023-07-13T11:34:31;3.65;;;1.45;;
46090;SDS011;31826;53.572;10.170;2023-07-13T11:37:01;4.05;;;1.60;;
46090;SDS011;31826;53.572;10.170;2023-07-13T11:39:31;4.53;;;1.80;;
46090;SDS011;31826;53.572;10.170;2023-07-13T11:42:00;6.22;;;1.27;;
46090;SDS011;31826;53.572;10.170;2023-07-13T11:44:30;4.10;;;1.50;;
46090;SDS011;31826;53.572;10.170;2023-07-13T11:46:58;2.95;;;1.42;;
46090;SDS011;31826;53.572;10.170;2023-07-13T11:49:29;4.40;;;1.48;;
46090;SDS011;31826;53.572;10.170;2023-07-13T11:51:57;7.88;;;1.50;;
46090;SDS011;31826;53.572;10.170;2023-07-13T11:56:59;4.40;;;1.40;;
46090;SDS011;31826;53.572;10.170;2023-07-13T11:59:31;2.83;;;1.43;;
46090;SDS011;31826;53.572;10.170;2023-07-13T12:01:58;4.13;;;1.45;;
46090;SDS011;31826;53.572;10.170;2023-07-13T12:04:26;3.03;;;1.38;;
46090;SDS011;31826;53.572;10.170;2023-07-13T12:07:04;3.67;;;1.30;;
46090;SDS011;31826;53.572;10.170;2023-07-13T12:09:32;3.30;;;1.33;;
46090;SDS011;31826;53.572;10.170;2023-07-13T12:11:58;4.95;;;1.30;;
46090;SDS011;31826;53.572;10.170;2023-07-13T12:14:27;5.68;;;1.70;;
46090;SDS011;31826;53.572;10.170;2023-07-13T12:16:53;7.60;;;1.30;;
46090;SDS011;31826;53.572;10.170;2023-07-13T12:19:25;4.53;;;1.63;;
46090;SDS011;31826;53.572;10.170;2023-07-13T12:21:56;5.88;;;1.58;;
46090;SDS011;31826;53.572;10.170;2023-07-13T12:24:23;3.45;;;1.30;;
46090;SDS011;31826;53.572;10.170;2023-07-13T12:27:00;3.10;;;1.40;;
46090;SDS011;31826;53.572;10.170;2023-07-13T12:29:29;2.40;;;1.20;;
46090;SDS011;31826;53.572;10.170;2023-07-13T12:31:56;4.20;;;1.40;;
46090;SDS011;31826;53.572;10.170;2023-07-13T12:34:22;4.77;;;1.50;;
46090;SDS011;31826;53.572;10.170;2023-07-13T12:44:49;6.22;;;2.00;;
46090;SDS011;31826;53.572;10.170;2023-07-13T12:47:19;4.70;;;1.60;;
46090;SDS011;31826;53.572;10.170;2023-07-13T12:50:04;5.03;;;1.55;;
46090;SDS011;31826;53.572;10.170;2023-07-13T12:52:34;3.85;;;1.55;;
46090;SDS011;31826;53.572;10.170;2023-07-13T12:55:05;6.32;;;1.88;;
46090;SDS011;31826;53.572;10.170;2023-07-13T12:57:43;5.10;;;1.80;;
46090;SDS011;31826;53.572;10.170;2023-07-13T13:00:22;3.90;;;1.45;;
46090;SDS011;31826;53.572;10.170;2023-07-13T13:02:54;2.92;;;1.42;;
46090;SDS011;31826;53.572;10.170;2023-07-13T13:05:21;2.20;;;1.45;;
46090;SDS011;31826;53.572;10.170;2023-07-13T13:07:50;2.75;;;1.40;;
46090;SDS011;31826;53.572;10.170;2023-07-13T13:10:16;5.05;;;1.48;;
46090;SDS011;31826;53.572;10.170;2023-07-13T13:12:42;5.03;;;1.50;;
46090;SDS011;31826;53.572;10.170;2023-07-13T13:15:08;4.03;;;1.60;;
46090;SDS011;31826;53.572;10.170;2023-07-13T13:17:36;4.07;;;1.73;;
46090;SDS011;31826;53.572;10.170;2023-07-13T13:20:15;4.55;;;1.65;;
46090;SDS011;31826;53.572;10.170;2023-07-13T13:22:42;4.80;;;1.70;;
46090;SDS011;31826;53.572;10.170;2023-07-13T13:25:09;7.70;;;2.23;;
46090;SDS011;31826;53.572;10.170;2023-07-13T13:27:36;3.92;;;1.67;;
46090;SDS011;31826;53.572;10.170;2023-07-13T13:30:02;5.35;;;1.73;;
46090;SDS011;31826;53.572;10.170;2023-07-13T13:32:28;4.03;;;2.05;;
46090;SDS011;31826;53.572;10.170;2023-07-13T13:34:54;3.25;;;1.52;;
46090;SDS011;31826;53.572;10.170;2023-07-13T13:37:20;3.08;;;1.52;;
46090;SDS011;31826;53.572;10.170;2023-07-13T13:39:48;4.70;;;1.60;;
46090;SDS011;31826;53.572;10.170;2023-07-13T13:42:14;3.45;;;2.08;;
46090;SDS011;31826;53.572;10.170;2023-07-13T13:44:40;4.82;;;1.55;;
46090;SDS011;31826;53.572;10.170;2023-07-13T13:47:27;2.53;;;1.27;;
46090;SDS011;31826;53.572;10.170;2023-07-13T13:49:56;3.72;;;1.70;;
46090;SDS011;31826;53.572;10.170;2023-07-13T13:52:23;4.50;;;1.67;;
46090;SDS011;31826;53.572;10.170;2023-07-13T13:54:49;4.07;;;1.60;;
46090;SDS011;31826;53.572;10.170;2023-07-13T13:57:15;3.53;;;1.43;;
46090;SDS011;31826;53.572;10.170;2023-07-13T13:59:40;3.50;;;1.53;;
46090;SDS011;31826;53.572;10.170;2023-07-13T14:02:22;4.00;;;1.58;;
46090;SDS011;31826;53.572;10.170;2023-07-13T14:04:54;5.03;;;1.42;;
46090;SDS011;31826;53.572;10.170;2023-07-13T14:07:25;4.22;;;1.60;;
46090;SDS011;31826;53.572;10.170;2023-07-13T14:09:52;5.13;;;1.80;;
46090;SDS011;31826;53.572;10.170;2023-07-13T14:12:20;5.47;;;1.97;;
46090;SDS011;31826;53.572;10.170;2023-07-13T14:14:46;2.92;;;1.55;;
46090;SDS011;31826;53.572;10.170;2023-07-13T14:17:21;4.80;;;1.70;;
46090;SDS011;31826;53.572;10.170;2023-07-13T14:19:50;3.53;;;1.70;;
46090;SDS011;31826;53.572;10.170;2023-07-13T14:22:19;5.40;;;1.70;;
46090;SDS011;31826;53.572;10.170;2023-07-13T14:24:45;2.92;;;1.50;;
46090;SDS011;31826;53.572;10.170;2023-07-13T14:27:11;3.58;;;1.58;;
46090;SDS011;31826;53.572;10.170;2023-07-13T14:29:37;5.57;;;1.70;;
46090;SDS011;31826;53.572;10.170;2023-07-13T14:32:05;4.30;;;1.50;;
46090;SDS011;31826;53.572;10.170;2023-07-13T14:34:33;5.53;;;1.65;;
46090;SDS011;31826;53.572;10.170;2023-07-13T14:36:59;5.37;;;1.60;;
46090;SDS011;31826;53.572;10.170;2023-07-13T14:39:24;3.13;;;1.48;;
46090;SDS011;31826;53.572;10.170;2023-07-13T14:41:52;4.07;;;1.90;;
46090;SDS011;31826;53.572;10.170;2023-07-13T14:44:28;5.57;;;1.58;;
46090;SDS011;31826;53.572;10.170;2023-07-13T14:46:56;3.55;;;1.75;;
46090;SDS011;31826;53.572;10.170;2023-07-13T14:51:51;4.97;;;2.03;;
46090;SDS011;31826;53.572;10.170;2023-07-13T14:54:17;3.40;;;1.63;;
46090;SDS011;31826;53.572;10.170;2023-07-13T14:56:43;5.70;;;1.80;;
46090;SDS011;31826;53.572;10.170;2023-07-13T14:59:09;6.53;;;2.22;;
46090;SDS011;31826;53.572;10.170;2023-07-13T15:01:35;4.07;;;1.80;;
46090;SDS011;31826;53.572;10.170;2023-07-13T15:04:02;2.55;;;1.73;;
46090;SDS011;31826;53.572;10.170;2023-07-13T15:06:29;4.82;;;1.88;;
46090;SDS011;31826;53.572;10.170;2023-07-13T15:08:56;6.65;;;1.63;;
46090;SDS011;31826;53.572;10.170;2023-07-13T15:11:22;5.00;;;2.03;;
46090;SDS011;31826;53.572;10.170;2023-07-13T15:13:48;5.95;;;1.63;;
46090;SDS011;31826;53.572;10.170;2023-07-13T15:16:24;3.05;;;1.50;;
46090;SDS011;31826;53.572;10.170;2023-07-13T15:18:51;5.18;;;1.67;;
46090;SDS011;31826;53.572;10.170;2023-07-13T15:21:21;2.97;;;1.63;;
46090;SDS011;31826;53.572;10.170;2023-07-13T15:23:48;4.20;;;1.80;;
46090;SDS011;31826;53.572;10.170;2023-07-13T15:26:16;3.55;;;1.98;;
46090;SDS011;31826;53.572;10.170;2023-07-13T15:28:42;3.65;;;1.40;;
46090;SDS011;31826;53.572;10.170;2023-07-13T15:31:20;4.38;;;1.63;;
46090;SDS011;31826;53.572;10.170;2023-07-13T15:33:48;2.80;;;1.60;;
46090;SDS011;31826;53.572;10.170;2023-07-13T15:36:18;4.20;;;1.70;;